Time;durP1;ratioP1;P1;durP2;ratioP2;P2;SDS_P1;SDS_P2;PMS_P1;PMS_P2;Temp;Humidity;BMP_temperature;BMP_pressure;BME280_temperature;BME280_humidity;BME280_pressure;Samples;Min_cycle;Max_cycle;Signal;HPM_P1;HPM_P2
2023/04/08 00:01:17;;;;;;;9.27;5.63;;;3.40;1.00;;;;;;5044124;28;20087;-84
2023/04/08 00:03:43;;;;;;;10.68;5.30;;;3.70;1.00;;;;;;5058059;28;20080;-86
2023/04/08 00:06:08;;;;;;;12.52;6.40;;;3.70;1.00;;;;;;5036232;28;20047;-84
2023/04/08 00:08:34;;;;;;;11.25;6.05;;;3.50;1.00;;;;;;5045969;28;20063;-85
2023/04/08 00:11:00;;;;;;;8.38;5.28;;;3.90;1.00;;;;;;5038119;28;20132;-84
2023/04/08 00:13:25;;;;;;;10.35;5.85;;;3.10;1.00;;;;;;5044988;28;20495;-84
2023/04/08 00:15:51;;;;;;;11.43;6.13;;;3.40;1.00;;;;;;5040534;28;20044;-89
2023/04/08 00:18:17;;;;;;;11.85;6.32;;;3.10;1.00;;;;;;5041662;28;20044;-84
2023/04/08 00:20:43;;;;;;;9.52;5.57;;;3.10;1.00;;;;;;5084911;28;20523;-86
2023/04/08 00:23:09;;;;;;;11.43;6.35;;;2.90;1.00;;;;;;5089320;28;20044;-84
2023/04/08 00:25:35;;;;;;;9.15;5.93;;;3.10;1.00;;;;;;5074324;28;20051;-84
2023/04/08 00:28:00;;;;;;;10.52;6.22;;;3.20;1.00;;;;;;5064342;28;20040;-83
2023/04/08 00:30:27;;;;;;;10.30;6.38;;;3.00;1.00;;;;;;5057266;28;20044;-86
2023/04/08 00:32:54;;;;;;;12.10;6.55;;;3.80;11.20;;;;;;5046065;28;20066;-84
2023/04/08 00:35:19;;;;;;;14.43;7.00;;;3.10;26.80;;;;;;5058585;28;20035;-85
2023/04/08 00:37:45;;;;;;;12.35;7.07;;;3.40;88.30;;;;;;5051816;28;20105;-84
2023/04/08 00:40:11;;;;;;;10.77;6.80;;;2.90;95.10;;;;;;5072657;28;20073;-84
2023/04/08 00:42:37;;;;;;;10.65;6.43;;;2.80;96.60;;;;;;5061313;28;20075;-85
2023/04/08 00:45:04;;;;;;;12.90;7.35;;;3.00;96.30;;;;;;5044026;28;20559;-84
2023/04/08 00:47:30;;;;;;;11.82;7.07;;;2.90;99.10;;;;;;5055534;28;20044;-84
2023/04/08 00:49:55;;;;;;;12.57;7.07;;;3.20;96.90;;;;;;5057259;28;20484;-86
2023/04/08 00:52:21;;;;;;;12.40;7.55;;;3.10;99.90;;;;;;5091277;28;20036;-84
2023/04/08 00:54:47;;;;;;;13.45;7.65;;;3.00;99.90;;;;;;5072426;28;20047;-87
2023/04/08 00:57:13;;;;;;;14.30;7.68;;;3.20;99.90;;;;;;5057773;28;20056;-85
2023/04/08 00:59:39;;;;;;;15.15;7.45;;;2.70;99.90;;;;;;5083845;28;20036;-85
2023/04/08 01:02:33;;;;;;;13.45;7.60;;;3.00;99.90;;;;;;5057376;28;20051;-86
2023/04/08 01:05:01;;;;;;;18.33;8.45;;;2.70;99.90;;;;;;5058800;28;20405;-85
2023/04/08 01:07:46;;;;;;;16.73;8.48;;;3.50;99.90;;;;;;5091112;28;20058;-84
2023/04/08 01:10:17;;;;;;;19.33;8.13;;;2.60;99.90;;;;;;5055171;28;20607;-86
2023/04/08 01:12:56;;;;;;;14.60;8.63;;;2.90;99.90;;;;;;5059791;28;20130;-84
2023/04/08 01:15:25;;;;;;;17.45;9.02;;;2.80;99.90;;;;;;5072176;28;20119;-84
2023/04/08 01:17:55;;;;;;;16.23;8.98;;;2.70;99.90;;;;;;5071055;28;20038;-84
2023/04/08 01:20:23;;;;;;;17.95;9.02;;;2.60;99.90;;;;;;5050865;28;20059;-84
2023/04/08 01:23:20;;;;;;;14.80;9.02;;;2.60;99.90;;;;;;5053454;28;20086;-86
2023/04/08 01:25:53;;;;;;;15.35;9.10;;;2.80;99.90;;;;;;5084819;28;20048;-86
2023/04/08 01:28:21;;;;;;;15.48;9.30;;;2.70;99.90;;;;;;5055963;28;20053;-86
2023/04/08 01:30:48;;;;;;;20.27;10.02;;;3.30;99.90;;;;;;5080878;28;20040;-84
2023/04/08 01:33:16;;;;;;;16.83;9.55;;;2.60;99.90;;;;;;5055331;28;20075;-84
2023/04/08 01:35:43;;;;;;;15.35;9.02;;;3.00;99.90;;;;;;5055790;28;20048;-83
2023/04/08 01:38:15;;;;;;;17.60;9.88;;;2.50;99.90;;;;;;5055420;28;20458;-87
2023/04/08 01:40:42;;;;;;;16.80;8.80;;;3.60;99.90;;;;;;5066312;28;20063;-84
2023/04/08 01:43:10;;;;;;;17.25;9.82;;;2.80;99.90;;;;;;5046358;28;20098;-85
2023/04/08 01:45:36;;;;;;;17.40;9.35;;;2.90;99.90;;;;;;5070403;28;20048;-90
2023/04/08 01:48:02;;;;;;;17.98;9.00;;;2.70;99.90;;;;;;5060897;28;20085;-84
2023/04/08 01:50:30;;;;;;;15.90;9.77;;;2.40;99.90;;;;;;5077059;28;20056;-87
2023/04/08 01:52:58;;;;;;;19.90;9.88;;;3.00;99.90;;;;;;5060733;28;20095;-85
2023/04/08 01:55:24;;;;;;;19.30;9.75;;;2.70;99.90;;;;;;5092620;28;20398;-85
2023/04/08 01:57:52;;;;;;;18.73;10.07;;;2.50;99.90;;;;;;5054472;28;20089;-85
2023/04/08 02:00:20;;;;;;;27.60;10.60;;;2.40;99.90;;;;;;5055102;28;20050;-84
2023/04/08 02:02:47;;;;;;;17.95;10.15;;;2.80;99.90;;;;;;5096577;28;20040;-85
2023/04/08 02:05:13;;;;;;;19.98;10.15;;;2.20;99.90;;;;;;5053613;28;20084;-85
2023/04/08 02:07:39;;;;;;;18.42;10.45;;;2.80;99.90;;;;;;5039066;28;20064;-86
2023/04/08 02:10:05;;;;;;;19.52;11.02;;;2.40;99.90;;;;;;5080708;28;20487;-84
2023/04/08 02:12:33;;;;;;;19.27;11.00;;;2.20;99.90;;;;;;5083020;28;20040;-86
2023/04/08 02:14:59;;;;;;;19.13;10.35;;;2.60;99.90;;;;;;5075029;28;20039;-85
2023/04/08 02:17:42;;;;;;;18.13;10.30;;;2.50;99.90;;;;;;5076898;28;20040;-86
2023/04/08 02:20:22;;;;;;;21.40;10.65;;;2.90;99.90;;;;;;5064112;28;20101;-85
2023/04/08 02:22:59;;;;;;;23.38;10.55;;;2.60;99.90;;;;;;5067355;28;20044;-84
2023/04/08 02:25:28;;;;;;;20.48;10.40;;;2.30;99.90;;;;;;5059479;28;20048;-85
2023/04/08 02:27:55;;;;;;;19.42;11.13;;;3.00;99.90;;;;;;5075389;28;21645;-84
2023/04/08 02:30:22;;;;;;;23.00;11.90;;;2.10;99.90;;;;;;5058753;28;20044;-84
2023/04/08 02:32:50;;;;;;;21.85;10.88;;;2.00;99.90;;;;;;5067686;28;20382;-85
2023/04/08 02:35:16;;;;;;;21.30;11.10;;;2.10;99.90;;;;;;5059749;28;20545;-85
2023/04/08 02:37:45;;;;;;;18.95;11.07;;;2.40;99.90;;;;;;5042621;28;20101;-90
2023/04/08 02:40:28;;;;;;;20.67;11.15;;;3.10;99.90;;;;;;5084343;28;20046;-85
2023/04/08 02:42:55;;;;;;;23.35;11.95;;;2.30;99.90;;;;;;5082733;28;20048;-84
2023/04/08 02:45:21;;;;;;;22.15;11.27;;;2.20;99.90;;;;;;5073819;28;20547;-84
2023/04/08 02:47:47;;;;;;;23.38;12.35;;;2.20;99.90;;;;;;5071862;28;20409;-86
2023/04/08 02:50:13;;;;;;;20.88;11.40;;;2.30;99.90;;;;;;5038648;28;20053;-85
2023/04/08 02:52:38;;;;;;;22.45;11.32;;;2.80;99.90;;;;;;5051562;28;20481;-85
2023/04/08 02:55:11;;;;;;;22.15;11.88;;;2.30;99.90;;;;;;5039352;28;20194;-84
2023/04/08 02:57:39;;;;;;;24.35;11.30;;;2.00;99.90;;;;;;5054502;28;20041;-84
2023/04/08 03:00:06;;;;;;;20.25;11.73;;;1.90;99.90;;;;;;5043003;28;20933;-84
2023/04/08 03:02:32;;;;;;;31.23;12.43;;;2.10;99.90;;;;;;5094394;28;20044;-84
2023/04/08 03:04:58;;;;;;;26.15;12.60;;;2.00;99.90;;;;;;5042115;28;20082;-85
2023/04/08 03:07:23;;;;;;;23.73;12.05;;;2.00;99.90;;;;;;5059076;28;20054;-86
2023/04/08 03:09:49;;;;;;;25.33;12.50;;;1.70;99.90;;;;;;5084853;28;20053;-84
2023/04/08 03:12:15;;;;;;;23.30;11.65;;;2.00;99.90;;;;;;5074090;28;20036;-88
2023/04/08 03:14:41;;;;;;;25.45;12.68;;;2.20;99.90;;;;;;5043055;28;20044;-84
2023/04/08 03:17:06;;;;;;;24.45;12.18;;;2.70;99.90;;;;;;5075203;28;20051;-88
2023/04/08 03:19:32;;;;;;;27.58;12.70;;;1.80;1.00;;;;;;5058339;28;20052;-84
2023/04/08 03:21:58;;;;;;;25.38;12.98;;;2.70;1.00;;;;;;5081799;28;20036;-87
2023/04/08 03:24:24;;;;;;;25.75;12.50;;;2.30;1.00;;;;;;5037098;28;20048;-85
2023/04/08 03:26:49;;;;;;;28.45;12.77;;;1.90;1.00;;;;;;5074931;28;20055;-90
2023/04/08 03:29:15;;;;;;;27.60;12.60;;;1.90;1.00;;;;;;5051883;28;20127;-85
2023/04/08 03:31:41;;;;;;;22.65;12.50;;;2.30;1.00;;;;;;5089631;28;20036;-84
2023/04/08 03:34:06;;;;;;;26.85;12.35;;;2.10;1.00;;;;;;5049256;28;20370;-84
2023/04/08 03:36:32;;;;;;;26.05;12.73;;;2.00;1.00;;;;;;5072558;28;20079;-84
2023/04/08 03:38:58;;;;;;;26.17;13.20;;;2.20;1.00;;;;;;5078337;28;20043;-84
2023/04/08 03:41:24;;;;;;;22.92;12.73;;;2.00;1.00;;;;;;5092119;28;20125;-85
2023/04/08 03:43:49;;;;;;;27.83;13.60;;;2.10;1.00;;;;;;5058596;28;20059;-90
2023/04/08 03:46:15;;;;;;;30.13;13.20;;;2.20;1.00;;;;;;5074556;28;20085;-85
2023/04/08 03:48:41;;;;;;;24.38;12.63;;;2.00;1.00;;;;;;5075345;28;20044;-85
2023/04/08 03:51:06;;;;;;;26.52;13.25;;;2.90;1.00;;;;;;5066603;28;20101;-85
2023/04/08 03:53:32;;;;;;;26.83;12.98;;;2.10;1.00;;;;;;5067530;28;20049;-85
2023/04/08 03:55:58;;;;;;;24.20;12.38;;;1.80;1.00;;;;;;5052208;28;20138;-85
2023/04/08 03:58:24;;;;;;;26.13;12.68;;;2.10;1.00;;;;;;5053309;28;20060;-86
2023/04/08 04:00:50;;;;;;;29.02;14.23;;;1.90;1.00;;;;;;5041843;28;20040;-85
2023/04/08 04:03:16;;;;;;;27.80;13.90;;;1.90;1.00;;;;;;5055432;28;20044;-85
2023/04/08 04:05:41;;;;;;;30.77;13.57;;;2.00;1.00;;;;;;5054767;28;20041;-84
2023/04/08 04:08:08;;;;;;;26.13;13.32;;;2.40;1.00;;;;;;5056978;28;20052;-85
2023/04/08 04:10:34;;;;;;;28.88;13.18;;;2.20;1.00;;;;;;5087375;28;20059;-85
2023/04/08 04:13:00;;;;;;;30.30;13.50;;;2.40;1.00;;;;;;5056810;28;20584;-86
2023/04/08 04:15:26;;;;;;;29.58;13.88;;;2.10;1.00;;;;;;5061540;28;20036;-85
2023/04/08 04:17:51;;;;;;;27.73;13.27;;;2.70;1.00;;;;;;5060234;28;20124;-85
2023/04/08 04:20:18;;;;;;;28.83;13.25;;;2.30;1.00;;;;;;5039243;28;20481;-85
2023/04/08 04:22:43;;;;;;;27.08;13.55;;;1.90;1.00;;;;;;5057246;28;20140;-85
2023/04/08 04:25:09;;;;;;;28.58;12.95;;;2.10;1.00;;;;;;5062681;28;20106;-84
2023/04/08 04:27:35;;;;;;;32.55;14.10;;;2.20;1.00;;;;;;5055988;28;20059;-85
2023/04/08 04:30:02;;;;;;;26.75;12.88;;;2.70;1.00;;;;;;5080701;28;20044;-85
2023/04/08 04:32:28;;;;;;;30.13;14.25;;;1.90;1.00;;;;;;5079938;28;20043;-84
2023/04/08 04:34:53;;;;;;;29.63;13.90;;;2.60;1.00;;;;;;5061679;28;20036;-85
2023/04/08 04:37:19;;;;;;;36.13;14.85;;;2.30;1.00;;;;;;5035054;28;20470;-85
2023/04/08 04:39:45;;;;;;;29.17;14.60;;;2.00;1.00;;;;;;5078472;28;20054;-85
2023/04/08 04:42:11;;;;;;;35.58;14.48;;;2.40;1.00;;;;;;5072876;28;20043;-85
2023/04/08 04:44:36;;;;;;;32.47;14.38;;;1.70;1.00;;;;;;5057018;28;20036;-86
2023/04/08 04:47:02;;;;;;;26.27;13.50;;;2.20;1.00;;;;;;5075996;28;20481;-85
2023/04/08 04:49:28;;;;;;;27.60;13.32;;;2.10;1.00;;;;;;5072434;28;20130;-85
2023/04/08 04:51:54;;;;;;;33.08;14.52;;;2.00;1.00;;;;;;5064226;28;20050;-86
2023/04/08 04:54:19;;;;;;;30.40;13.73;;;1.70;1.00;;;;;;5060310;28;20052;-88
2023/04/08 04:56:45;;;;;;;30.70;14.85;;;2.10;1.00;;;;;;5088952;28;20063;-85
2023/04/08 04:59:11;;;;;;;30.95;14.07;;;2.40;1.00;;;;;;5025629;28;20481;-85
2023/04/08 05:01:37;;;;;;;29.58;14.18;;;2.00;1.00;;;;;;5090361;28;20048;-85
2023/04/08 05:04:02;;;;;;;29.00;12.77;;;1.70;1.00;;;;;;5059254;28;20745;-86
2023/04/08 05:06:28;;;;;;;29.27;13.40;;;1.50;1.00;;;;;;5060275;28;20048;-85
2023/04/08 05:08:54;;;;;;;29.45;13.75;;;1.90;1.00;;;;;;5057915;28;20110;-87
2023/04/08 05:11:20;;;;;;;35.67;13.95;;;2.20;1.00;;;;;;5045018;28;20044;-85
2023/04/08 05:13:46;;;;;;;29.60;13.27;;;1.80;1.00;;;;;;5050617;28;20043;-85
2023/04/08 05:16:12;;;;;;;27.65;13.95;;;1.60;1.00;;;;;;5072404;28;20104;-85
2023/04/08 05:18:38;;;;;;;35.88;16.80;;;1.70;1.00;;;;;;5059914;28;20385;-85
2023/04/08 05:21:04;;;;;;;37.50;15.80;;;1.60;1.00;;;;;;5048574;28;20041;-91
2023/04/08 05:23:30;;;;;;;34.70;15.30;;;2.00;1.00;;;;;;5062137;28;20549;-90
2023/04/08 05:25:55;;;;;;;36.38;15.43;;;2.50;1.00;;;;;;5057173;28;20075;-86
2023/04/08 05:28:21;;;;;;;32.97;16.15;;;2.50;1.00;;;;;;5060836;28;20055;-85
2023/04/08 05:30:51;;;;;;;37.67;18.52;;;2.00;1.00;;;;;;5060105;28;20170;-85
2023/04/08 05:33:17;;;;;;;39.95;18.33;;;2.20;1.00;;;;;;5058241;28;20074;-86
2023/04/08 05:35:43;;;;;;;43.78;19.13;;;3.30;1.00;;;;;;5072910;28;20048;-85
2023/04/08 05:38:08;;;;;;;45.17;21.70;;;2.60;1.00;;;;;;5047593;28;20036;-85
2023/04/08 05:40:34;;;;;;;39.63;18.55;;;2.80;1.00;;;;;;5075604;28;20087;-85
2023/04/08 05:43:00;;;;;;;33.17;15.18;;;3.30;1.00;;;;;;5077203;28;20043;-85
2023/04/08 05:45:27;;;;;;;32.90;14.65;;;3.50;1.00;;;;;;5045036;28;20102;-85
2023/04/08 05:47:53;;;;;;;34.28;15.50;;;3.30;1.00;;;;;;5089628;28;20056;-86
2023/04/08 05:50:19;;;;;;;39.88;16.27;;;3.60;1.00;;;;;;5060729;28;20123;-85
2023/04/08 05:52:45;;;;;;;34.58;15.98;;;3.90;1.00;;;;;;5060454;28;20046;-85
2023/04/08 05:55:12;;;;;;;35.75;15.23;;;4.30;1.00;;;;;;5077103;28;20044;-86
2023/04/08 05:57:38;;;;;;;35.58;14.82;;;4.40;1.00;;;;;;5066007;28;20443;-83
2023/04/08 06:00:08;;;;;;;37.05;15.18;;;4.20;1.00;;;;;;5067644;28;20479;-84
2023/04/08 06:02:35;;;;;;;35.05;15.77;;;3.90;1.00;;;;;;5083904;28;20048;-86
2023/04/08 06:05:02;;;;;;;34.47;14.63;;;4.50;1.00;;;;;;5078384;28;20494;-84
2023/04/08 06:07:28;;;;;;;29.05;14.73;;;4.90;1.00;;;;;;5078194;28;20044;-86
2023/04/08 06:09:54;;;;;;;37.33;15.60;;;4.00;1.00;;;;;;5054979;28;20126;-88
2023/04/08 06:12:20;;;;;;;33.13;14.50;;;4.90;1.00;;;;;;5056809;28;20044;-85
2023/04/08 06:14:46;;;;;;;34.67;14.95;;;4.40;1.00;;;;;;5058558;28;20555;-85
2023/04/08 06:21:57;;;;;;;35.53;14.93;;;4.70;1.00;;;;;;5076051;28;20119;-84
2023/04/08 06:24:28;;;;;;;32.05;18.50;;;4.80;1.00;;;;;;5074785;28;20048;-84
2023/04/08 06:26:54;;;;;;;32.30;14.98;;;4.90;1.00;;;;;;5040952;28;20135;-84
2023/04/08 06:30:25;;;;;;;30.60;14.68;;;5.30;1.00;;;;;;5067200;28;20047;-84
2023/04/08 06:32:56;;;;;;;28.35;13.77;;;5.10;1.00;;;;;;5034564;28;20498;-84
2023/04/08 06:35:22;;;;;;;31.77;15.07;;;5.70;1.00;;;;;;5022517;28;20045;-84
2023/04/08 06:37:47;;;;;;;31.30;14.23;;;5.80;1.00;;;;;;5059707;28;20485;-84
2023/04/08 06:40:13;;;;;;;27.90;13.80;;;6.30;1.00;;;;;;5025549;28;20048;-85
2023/04/08 06:42:41;;;;;;;27.42;13.80;;;6.20;1.00;;;;;;5010751;28;20052;-87
2023/04/08 06:45:08;;;;;;;28.27;14.43;;;6.40;1.00;;;;;;5041078;28;20044;-85
2023/04/08 06:47:33;;;;;;;26.50;13.68;;;6.40;1.00;;;;;;5026540;28;20044;-85
2023/04/08 06:49:59;;;;;;;25.30;13.93;;;6.70;1.00;;;;;;5040914;28;20044;-85
2023/04/08 06:52:25;;;;;;;25.48;13.73;;;6.80;1.00;;;;;;5029576;28;20123;-85
2023/04/08 06:54:50;;;;;;;25.27;14.23;;;6.90;1.00;;;;;;5053578;28;20507;-83
2023/04/08 06:57:16;;;;;;;23.40;12.68;;;7.00;1.00;;;;;;5053041;28;20044;-91
2023/04/08 06:59:42;;;;;;;25.40;14.23;;;7.10;1.00;;;;;;5052969;28;20123;-83
2023/04/08 07:02:07;;;;;;;27.05;13.27;;;6.80;99.90;;;;;;5024291;28;20371;-84
2023/04/08 07:04:33;;;;;;;25.85;14.07;;;7.20;99.90;;;;;;5034743;28;20059;-88
2023/04/08 07:06:59;;;;;;;21.20;11.98;;;7.10;99.90;;;;;;5037539;28;20049;-82
2023/04/08 07:09:24;;;;;;;25.17;13.05;;;6.90;99.90;;;;;;5058848;28;20048;-84
2023/04/08 07:11:50;;;;;;;25.15;14.40;;;7.60;99.90;;;;;;5044008;28;20100;-83
2023/04/08 07:14:16;;;;;;;23.23;13.20;;;6.70;99.90;;;;;;5077136;28;20104;-82
2023/04/08 07:16:41;;;;;;;24.92;13.20;;;6.80;99.90;;;;;;5043527;28;20094;-83
2023/04/08 07:19:07;;;;;;;24.85;13.45;;;6.80;99.90;;;;;;5043140;28;20032;-83
2023/04/08 07:21:33;;;;;;;25.52;12.98;;;6.80;99.90;;;;;;5054859;28;20052;-79
2023/04/08 07:23:58;;;;;;;24.45;13.73;;;7.20;99.90;;;;;;5081586;28;20043;-83
2023/04/08 07:26:24;;;;;;;24.42;13.18;;;7.10;99.90;;;;;;5058537;28;20469;-81
2023/04/08 07:28:50;;;;;;;23.05;13.18;;;7.50;99.90;;;;;;5057745;28;20426;-84
2023/04/08 07:31:17;;;;;;;20.85;11.80;;;7.50;99.90;;;;;;5041648;28;20040;-82
2023/04/08 07:33:44;;;;;;;21.08;12.13;;;7.60;99.90;;;;;;5044317;28;20051;-84
2023/04/08 07:36:11;;;;;;;20.70;12.32;;;7.70;99.90;;;;;;5074841;28;20051;-82
2023/04/08 07:38:40;;;;;;;21.02;11.82;;;7.70;99.90;;;;;;5092484;28;20389;-81
2023/04/08 07:41:05;;;;;;;20.98;11.32;;;7.50;99.90;;;;;;5075349;28;20126;-82
2023/04/08 07:43:33;;;;;;;20.27;11.77;;;7.90;99.90;;;;;;5057847;28;20489;-82
2023/04/08 07:46:06;;;;;;;20.27;11.50;;;7.80;99.90;;;;;;5074993;28;20821;-82
2023/04/08 07:48:32;;;;;;;21.52;11.73;;;7.50;78.20;;;;;;5057894;28;20062;-82
2023/04/08 07:51:05;;;;;;;20.20;11.38;;;7.80;76.00;;;;;;5054960;28;20044;-81
2023/04/08 07:53:32;;;;;;;18.33;10.80;;;7.90;84.50;;;;;;5055087;28;20044;-82
2023/04/08 07:55:58;;;;;;;17.33;11.18;;;8.00;99.90;;;;;;5058150;28;20050;-81
2023/04/08 07:58:24;;;;;;;16.83;10.20;;;8.10;76.50;;;;;;5065325;28;20397;-86
2023/04/08 08:00:50;;;;;;;19.05;10.50;;;8.40;1.00;;;;;;5090611;28;20070;-81
2023/04/08 08:03:16;;;;;;;17.17;9.98;;;8.50;1.00;;;;;;5054483;28;20119;-82
2023/04/08 08:05:41;;;;;;;19.33;10.63;;;8.70;1.00;;;;;;5067267;28;20044;-81
2023/04/08 08:08:10;;;;;;;18.95;10.77;;;8.60;1.00;;;;;;5073697;28;20075;-80
2023/04/08 08:10:37;;;;;;;18.75;10.70;;;8.70;1.00;;;;;;5052660;28;20048;-84
2023/04/08 08:13:03;;;;;;;19.80;10.73;;;9.00;1.00;;;;;;5041774;28;20047;-80
2023/04/08 08:15:29;;;;;;;17.05;9.70;;;9.00;1.00;;;;;;5092458;28;20090;-80
2023/04/08 08:17:55;;;;;;;17.45;9.88;;;9.10;1.00;;;;;;5075688;28;20039;-81
2023/04/08 08:20:20;;;;;;;20.35;11.25;;;9.20;99.90;;;;;;5064894;28;20032;-86
2023/04/08 08:22:46;;;;;;;17.80;10.77;;;9.10;99.90;;;;;;5063459;28;20053;-86
2023/04/08 08:25:12;;;;;;;17.95;10.32;;;9.00;99.90;;;;;;5058516;28;20101;-88
2023/04/08 08:27:40;;;;;;;19.83;10.20;;;9.00;99.90;;;;;;5055212;28;20094;-82
2023/04/08 08:30:06;;;;;;;16.80;10.10;;;9.10;99.90;;;;;;5065035;28;20047;-81
2023/04/08 08:32:32;;;;;;;17.90;10.52;;;8.90;99.90;;;;;;5068996;28;20040;-80
2023/04/08 08:34:57;;;;;;;17.63;10.75;;;9.20;1.00;;;;;;5072093;28;20081;-81
2023/04/08 08:37:23;;;;;;;15.05;9.27;;;9.20;99.90;;;;;;5075692;28;20048;-80
2023/04/08 08:39:49;;;;;;;17.48;10.27;;;9.10;99.90;;;;;;5075734;28;20063;-80
2023/04/08 08:42:19;;;;;;;16.83;10.20;;;9.00;99.90;;;;;;5058109;28;20209;-82
2023/04/08 08:44:45;;;;;;;17.60;10.63;;;8.80;99.90;;;;;;5074604;28;20036;-84
2023/04/08 08:47:10;;;;;;;17.48;10.35;;;8.30;99.90;;;;;;5068575;28;20093;-82
2023/04/08 08:49:36;;;;;;;16.92;9.90;;;8.40;99.90;;;;;;5053817;28;20032;-83
2023/04/08 08:52:02;;;;;;;16.63;9.82;;;8.50;99.90;;;;;;5082036;28;20051;-82
2023/04/08 08:54:27;;;;;;;16.08;9.77;;;8.60;99.90;;;;;;5042631;28;20515;-81
2023/04/08 08:56:53;;;;;;;17.10;10.77;;;8.90;99.90;;;;;;5080391;28;20051;-81
2023/04/08 08:59:19;;;;;;;17.92;10.60;;;8.70;99.90;;;;;;5073680;28;20075;-82
2023/04/08 09:01:45;;;;;;;17.83;10.90;;;8.90;99.90;;;;;;5055933;28;20052;-83
2023/04/08 09:04:17;;;;;;;17.75;10.25;;;9.00;99.90;;;;;;5054789;28;20105;-83
2023/04/08 09:06:43;;;;;;;18.20;10.50;;;8.90;99.90;;;;;;5076255;28;20060;-81
2023/04/08 09:09:10;;;;;;;16.13;10.05;;;9.00;99.90;;;;;;5057035;28;20052;-81
2023/04/08 09:11:38;;;;;;;15.55;9.50;;;9.30;99.90;;;;;;5074607;28;20052;-87
2023/04/08 09:14:05;;;;;;;16.40;9.93;;;9.50;99.90;;;;;;5074516;28;20475;-81
2023/04/08 09:16:32;;;;;;;17.70;9.90;;;9.70;99.90;;;;;;5063529;28;20405;-83
2023/04/08 09:19:09;;;;;;;17.23;10.25;;;9.90;99.90;;;;;;5070701;28;20125;-81
2023/04/08 09:21:35;;;;;;;17.60;10.15;;;10.00;99.90;;;;;;5057749;28;20052;-82
2023/04/08 09:24:01;;;;;;;17.77;10.35;;;10.00;99.90;;;;;;5070388;28;20051;-82
2023/04/08 09:26:27;;;;;;;16.17;8.80;;;10.10;99.90;;;;;;5057966;28;20036;-81
2023/04/08 09:29:08;;;;;;;15.57;10.35;;;10.40;99.90;;;;;;5066167;28;20156;-81
2023/04/08 09:31:41;;;;;;;15.05;9.70;;;10.80;99.90;;;;;;5052115;28;20044;-81
2023/04/08 09:34:14;;;;;;;17.05;10.10;;;11.00;99.90;;;;;;5077321;28;20040;-82
2023/04/08 09:36:39;;;;;;;17.75;11.00;;;11.20;99.90;;;;;;5066149;28;20044;-85
2023/04/08 09:39:06;;;;;;;17.08;9.82;;;11.20;99.90;;;;;;5057212;28;20044;-85
2023/04/08 09:41:37;;;;;;;15.98;9.95;;;11.50;99.90;;;;;;5074092;28;20051;-82
2023/04/08 09:44:06;;;;;;;14.77;9.32;;;11.40;99.90;;;;;;5065627;28;20056;-81
2023/04/08 09:46:37;;;;;;;13.63;9.02;;;11.10;99.90;;;;;;5058063;28;20053;-80
2023/04/08 09:49:17;;;;;;;16.23;9.32;;;11.10;99.90;;;;;;5065253;28;20062;-81
2023/04/08 09:52:04;;;;;;;18.58;11.20;;;10.90;99.90;;;;;;5075576;28;20143;-83
2023/04/08 09:54:49;;;;;;;15.57;10.40;;;10.70;99.90;;;;;;5074347;28;20051;-81
2023/04/08 09:57:43;;;;;;;16.85;10.80;;;10.70;99.90;;;;;;5073563;28;20048;-81
2023/04/08 10:00:18;;;;;;;17.17;10.30;;;10.50;99.90;;;;;;5068963;28;20048;-81
2023/04/08 10:02:49;;;;;;;15.67;10.47;;;10.40;99.90;;;;;;5074821;28;20052;-80
2023/04/08 10:05:17;;;;;;;16.75;10.73;;;10.30;99.90;;;;;;5061190;28;20101;-81
2023/04/08 10:07:43;;;;;;;15.43;9.25;;;10.40;99.90;;;;;;5044732;28;20127;-83
2023/04/08 10:10:12;;;;;;;15.77;9.48;;;10.40;99.90;;;;;;5059731;28;20127;-80
2023/04/08 10:12:38;;;;;;;13.15;8.48;;;10.30;99.90;;;;;;5063432;28;20044;-80
2023/04/08 10:15:29;;;;;;;15.88;9.15;;;10.20;99.90;;;;;;5079273;28;20040;-80
2023/04/08 10:18:18;;;;;;;13.48;8.65;;;10.30;99.90;;;;;;5078258;28;20044;-82
2023/04/08 10:20:48;;;;;;;14.88;9.65;;;10.50;99.90;;;;;;5077097;28;20044;-81
2023/04/08 10:23:15;;;;;;;15.05;9.50;;;10.40;99.90;;;;;;5078205;28;20040;-81
2023/04/08 10:25:43;;;;;;;12.40;8.15;;;10.70;99.90;;;;;;5077653;28;20044;-81
2023/04/08 10:28:12;;;;;;;12.23;7.53;;;10.80;99.90;;;;;;5095129;28;20047;-81
2023/04/08 10:30:47;;;;;;;11.75;6.95;;;10.90;99.90;;;;;;5059916;28;20044;-82
2023/04/08 10:33:16;;;;;;;12.38;7.60;;;11.00;99.90;;;;;;5058754;28;20043;-82
2023/04/08 10:36:09;;;;;;;11.70;6.82;;;11.00;99.90;;;;;;5052938;28;20082;-82
2023/04/08 10:38:34;;;;;;;9.35;6.18;;;10.90;99.90;;;;;;5067511;28;20205;-82
2023/04/08 10:41:01;;;;;;;11.25;7.22;;;11.00;99.90;;;;;;5076537;28;20123;-81
2023/04/08 10:43:32;;;;;;;10.52;6.88;;;11.00;99.90;;;;;;5061085;28;20096;-81
2023/04/08 10:45:58;;;;;;;8.73;6.05;;;11.10;99.90;;;;;;5060299;28;20054;-81
2023/04/08 10:48:24;;;;;;;9.02;6.25;;;11.00;99.90;;;;;;5077835;28;20044;-81
2023/04/08 10:50:57;;;;;;;11.27;6.93;;;11.00;99.90;;;;;;5060792;28;20096;-81
2023/04/08 10:56:49;;;;;;;10.30;6.45;;;11.30;99.90;;;;;;5075176;28;20043;-85
2023/04/08 10:59:31;;;;;;;9.27;5.88;;;11.60;99.90;;;;;;5054391;28;20048;-81
2023/04/08 11:01:58;;;;;;;11.02;6.18;;;11.80;99.90;;;;;;5075523;28;20048;-82
2023/04/08 11:04:24;;;;;;;11.15;6.65;;;11.90;99.90;;;;;;5071917;28;20378;-82
2023/04/08 11:06:50;;;;;;;11.13;6.25;;;12.70;99.90;;;;;;5056653;28;20501;-82
2023/04/08 11:09:16;;;;;;;10.88;6.78;;;12.20;99.90;;;;;;5061226;28;20130;-81
2023/04/08 11:11:44;;;;;;;10.10;6.20;;;12.30;99.90;;;;;;5062482;28;20044;-82
2023/04/08 11:14:10;;;;;;;12.80;6.60;;;12.30;99.90;;;;;;5043599;28;20066;-83
2023/04/08 11:16:37;;;;;;;11.27;6.53;;;12.20;99.90;;;;;;5076140;28;20367;-83
2023/04/08 11:19:04;;;;;;;11.23;7.05;;;12.30;99.90;;;;;;5041167;28;20040;-82
2023/04/08 11:21:31;;;;;;;11.75;7.00;;;12.20;99.90;;;;;;5075759;28;20094;-82
2023/04/08 11:23:57;;;;;;;12.07;7.00;;;12.20;99.90;;;;;;5055842;28;20425;-82
2023/04/08 11:26:26;;;;;;;13.60;7.38;;;12.20;99.90;;;;;;5057157;28;20062;-86
2023/04/08 11:28:55;;;;;;;11.25;7.13;;;12.40;99.90;;;;;;5054189;28;20040;-82
2023/04/08 11:31:21;;;;;;;13.57;8.25;;;12.30;99.90;;;;;;5070188;28;20040;-82
2023/04/08 11:33:48;;;;;;;13.40;7.90;;;12.20;99.90;;;;;;5073295;28;20043;-82
2023/04/08 11:36:16;;;;;;;12.68;8.00;;;12.30;99.90;;;;;;5070186;28;20397;-82
2023/04/08 11:38:42;;;;;;;19.88;11.52;;;12.20;99.90;;;;;;5053918;28;20048;-82
2023/04/08 11:41:09;;;;;;;14.25;8.35;;;12.30;99.90;;;;;;5074060;28;20736;-82
2023/04/08 11:43:39;;;;;;;15.10;8.55;;;12.30;99.90;;;;;;5074012;28;20386;-82
2023/04/08 11:46:12;;;;;;;16.98;9.55;;;12.20;99.90;;;;;;5038175;28;20124;-83
2023/04/08 11:48:38;;;;;;;15.25;9.13;;;12.20;99.90;;;;;;5063723;28;20117;-80
2023/04/08 11:51:11;;;;;;;16.40;9.07;;;12.20;99.90;;;;;;5076754;28;20036;-84
2023/04/08 11:53:37;;;;;;;15.40;9.57;;;12.40;99.90;;;;;;5041903;28;20044;-81
2023/04/08 11:56:17;;;;;;;19.00;9.93;;;12.30;99.90;;;;;;5072532;28;20054;-80
2023/04/08 11:58:42;;;;;;;18.55;11.05;;;12.20;99.90;;;;;;5067987;28;20044;-81
2023/04/08 12:01:08;;;;;;;22.77;11.20;;;12.10;99.90;;;;;;5072308;28;20039;-80
2023/04/08 12:03:34;;;;;;;18.92;10.77;;;11.90;99.90;;;;;;5071443;28;20047;-81
2023/04/08 12:05:59;;;;;;;19.65;10.57;;;11.80;99.90;;;;;;5054948;28;20048;-84
2023/04/08 12:08:25;;;;;;;23.40;11.50;;;11.60;99.90;;;;;;5076639;28;20050;-83
2023/04/08 12:10:51;;;;;;;23.45;11.75;;;11.60;99.90;;;;;;5076115;28;20058;-83
2023/04/08 12:13:17;;;;;;;25.90;12.60;;;11.50;99.90;;;;;;5059620;28;20040;-83
2023/04/08 12:15:43;;;;;;;23.73;12.50;;;11.40;99.90;;;;;;5059400;28;20050;-83
2023/04/08 12:18:09;;;;;;;22.77;12.75;;;11.40;99.90;;;;;;5075835;28;20036;-83
2023/04/08 12:20:35;;;;;;;23.58;11.93;;;11.40;99.90;;;;;;5059319;28;20093;-83
2023/04/08 12:23:01;;;;;;;22.27;11.43;;;11.40;99.90;;;;;;5042041;28;20451;-84
2023/04/08 12:25:27;;;;;;;23.30;12.13;;;11.50;99.90;;;;;;5057162;28;20048;-83
2023/04/08 12:28:31;;;;;;;21.20;11.93;;;11.30;99.90;;;;;;5050481;28;20105;-83
2023/04/08 12:30:57;;;;;;;23.35;12.23;;;11.30;99.90;;;;;;5076112;28;20508;-83
2023/04/08 12:33:22;;;;;;;22.38;13.23;;;11.10;99.90;;;;;;5075738;28;20052;-83
2023/04/08 12:43:10;;;;;;;26.65;14.35;;;11.30;99.90;;;;;;5091924;28;20027;-81
2023/04/08 12:45:35;;;;;;;30.10;14.32;;;11.20;99.90;;;;;;5053652;28;20489;-82
2023/04/08 12:48:39;;;;;;;28.80;15.13;;;11.20;99.90;;;;;;5059352;28;20097;-82
2023/04/08 12:51:05;;;;;;;26.27;13.80;;;11.20;99.90;;;;;;5059470;28;20044;-83
2023/04/08 12:53:30;;;;;;;28.23;15.00;;;11.30;99.90;;;;;;5042765;28;20040;-82
2023/04/08 12:55:56;;;;;;;24.73;14.30;;;11.20;99.90;;;;;;5059416;28;20032;-82
2023/04/08 12:58:24;;;;;;;27.77;14.85;;;11.30;99.90;;;;;;5042499;28;20063;-82
2023/04/08 13:00:50;;;;;;;31.00;15.20;;;11.40;99.90;;;;;;5042428;28;20447;-81